Startpagina
METAR-TAF:

METAR-TAF

Vliegvelden :

Armenia, Colombia

breedte: 04-30N, lengte: 075-43W, hoogte: 1204 m

Actueel weer

Dit bericht is 1 uur en het 13 minuten geleden gemaakt, om 02:00 UTC
Wind 3 kt uit het noordoosten, variërend tussen het noorden en het oosten
Temperatuur 20°C
Vochtigheid 88%
Druk 1017 hPa
Zicht 10 km of meer
Weinig wolken op 1700 ft

METAR: SKAR 170200Z 04003KT 010V080 9999 FEW017 20/18 A3003

Tijdstip: 22:13 (03:13 UTC)


TAF: ontbreekt

Waarnemingen en weersverwachtingen van meer dan 4000 vliegvelden (METAR en TAF).

De beschikbare stations zijn de gele en rode punten op de kaart.

Ga met uw muis naar het station om de naam te zien.

Klik dan om waarnemingen en weersverwachtingen te zien.

kaart wijzigen: klik op de groene knoppen met een zwart kruis om in te zoomen, op de groene knop met een streepje om uit te zoomen of op de groene pijlen voor aangrenzende kaarten.


METAR-TAF: